02/19 01:00 更新

3,000ftに雲が散在
18,000ftに雲が多い

地上風: 310°4kt

上空風
13,000ft: 未計測
10,000ft: Array
 7,000ft: Array
 3,000ft: Array

地上: 5℃
上空: -10.7℃

日没: 17:26

RJTJ 181600Z 31004KT 9999 SCT030 BKN180 05/M03 Q1026 RMK 4SC030 6AC180 A3032=